sensor_id;sensor_type;location;lat;lon;timestamp;pressure;altitude;pressure_sealevel;temperature;humidity
23363;BME280;11853;48.080;11.960;2022-08-24T00:00:33;95069.94;;;18.16;87.87
23363;BME280;11853;48.080;11.960;2022-08-24T00:02:59;95075.28;;;18.16;87.91
23363;BME280;11853;48.080;11.960;2022-08-24T00:05:25;95073.66;;;18.15;88.52
23363;BME280;11853;48.080;11.960;2022-08-24T00:07:51;95072.00;;;18.14;88.79
23363;BME280;11853;48.080;11.960;2022-08-24T00:10:18;95068.28;;;18.15;89.60
23363;BME280;11853;48.080;11.960;2022-08-24T00:12:45;95063.09;;;18.14;90.27
23363;BME280;11853;48.080;11.960;2022-08-24T00:15:13;95062.25;;;18.13;90.17
23363;BME280;11853;48.080;11.960;2022-08-24T00:17:40;95062.47;;;18.12;91.04
23363;BME280;11853;48.080;11.960;2022-08-24T00:20:08;95064.31;;;18.11;91.66
23363;BME280;11853;48.080;11.960;2022-08-24T00:22:34;95064.31;;;18.11;91.80
23363;BME280;11853;48.080;11.960;2022-08-24T00:25:00;95062.84;;;18.09;92.47
23363;BME280;11853;48.080;11.960;2022-08-24T00:27:26;95065.97;;;18.12;92.16
23363;BME280;11853;48.080;11.960;2022-08-24T00:29:52;95065.97;;;18.12;92.45
23363;BME280;11853;48.080;11.960;2022-08-24T00:32:17;95067.25;;;18.16;92.08
23363;BME280;11853;48.080;11.960;2022-08-24T00:34:43;95061.88;;;18.16;91.24
23363;BME280;11853;48.080;11.960;2022-08-24T00:37:09;95063.28;;;18.12;91.40
23363;BME280;11853;48.080;11.960;2022-08-24T00:39:35;95064.47;;;18.03;92.48
23363;BME280;11853;48.080;11.960;2022-08-24T00:42:00;95064.22;;;17.98;92.72
23363;BME280;11853;48.080;11.960;2022-08-24T00:44:26;95065.22;;;17.97;92.33
23363;BME280;11853;48.080;11.960;2022-08-24T00:46:58;95062.28;;;17.92;93.16
23363;BME280;11853;48.080;11.960;2022-08-24T00:49:50;95063.69;;;17.88;93.42
23363;BME280;11853;48.080;11.960;2022-08-24T00:52:30;95062.22;;;17.85;93.49
23363;BME280;11853;48.080;11.960;2022-08-24T00:55:01;95063.44;;;17.83;93.56
23363;BME280;11853;48.080;11.960;2022-08-24T00:57:33;95057.88;;;17.84;93.07
23363;BME280;11853;48.080;11.960;2022-08-24T01:00:09;95057.22;;;17.82;93.26
23363;BME280;11853;48.080;11.960;2022-08-24T01:02:38;95065.38;;;17.89;92.44
23363;BME280;11853;48.080;11.960;2022-08-24T01:05:08;95063.25;;;17.84;92.33
23363;BME280;11853;48.080;11.960;2022-08-24T01:07:36;95060.66;;;17.76;93.26
23363;BME280;11853;48.080;11.960;2022-08-24T01:10:07;95066.34;;;17.66;93.47
23363;BME280;11853;48.080;11.960;2022-08-24T01:12:36;95065.06;;;17.62;94.10
23363;BME280;11853;48.080;11.960;2022-08-24T01:15:05;95066.34;;;17.66;93.88
23363;BME280;11853;48.080;11.960;2022-08-24T01:17:32;95055.81;;;17.65;93.79
23363;BME280;11853;48.080;11.960;2022-08-24T01:20:17;95061.38;;;17.63;93.63
23363;BME280;11853;48.080;11.960;2022-08-24T01:22:59;95057.66;;;17.64;93.77
23363;BME280;11853;48.080;11.960;2022-08-24T01:25:28;95055.75;;;17.58;93.55
23363;BME280;11853;48.080;11.960;2022-08-24T01:27:55;95048.25;;;17.53;94.09
23363;BME280;11853;48.080;11.960;2022-08-24T01:30:24;95057.13;;;17.54;94.11
23363;BME280;11853;48.080;11.960;2022-08-24T01:33:03;95056.94;;;17.55;93.82
23363;BME280;11853;48.080;11.960;2022-08-24T01:35:30;95060.00;;;17.52;94.24
23363;BME280;11853;48.080;11.960;2022-08-24T01:37:59;95064.16;;;17.55;94.39
23363;BME280;11853;48.080;11.960;2022-08-24T01:40:32;95062.53;;;17.39;94.29
23363;BME280;11853;48.080;11.960;2022-08-24T01:42:59;95051.31;;;17.29;95.22
23363;BME280;11853;48.080;11.960;2022-08-24T01:45:25;95055.19;;;17.26;94.82
23363;BME280;11853;48.080;11.960;2022-08-24T01:47:50;95051.09;;;17.30;93.78
23363;BME280;11853;48.080;11.960;2022-08-24T01:50:16;95054.66;;;17.16;94.42
23363;BME280;11853;48.080;11.960;2022-08-24T01:52:42;95045.34;;;17.12;94.72
23363;BME280;11853;48.080;11.960;2022-08-24T01:55:11;95047.34;;;17.10;94.61
23363;BME280;11853;48.080;11.960;2022-08-24T01:57:37;95045.72;;;17.09;94.38
23363;BME280;11853;48.080;11.960;2022-08-24T02:00:05;95039.97;;;17.12;94.49
23363;BME280;11853;48.080;11.960;2022-08-24T02:02:31;95050.69;;;17.12;94.41
23363;BME280;11853;48.080;11.960;2022-08-24T02:04:57;95048.13;;;17.04;94.89
23363;BME280;11853;48.080;11.960;2022-08-24T02:07:23;95049.53;;;17.00;95.39
23363;BME280;11853;48.080;11.960;2022-08-24T02:09:49;95050.34;;;17.00;95.85
23363;BME280;11853;48.080;11.960;2022-08-24T02:12:15;95052.09;;;16.93;95.65
23363;BME280;11853;48.080;11.960;2022-08-24T02:14:41;95047.22;;;16.82;96.77
23363;BME280;11853;48.080;11.960;2022-08-24T02:17:08;95044.38;;;16.83;96.34
23363;BME280;11853;48.080;11.960;2022-08-24T02:19:34;95050.72;;;16.82;96.52
23363;BME280;11853;48.080;11.960;2022-08-24T02:22:00;95047.22;;;16.82;97.10
23363;BME280;11853;48.080;11.960;2022-08-24T02:24:27;95049.06;;;16.81;97.53
23363;BME280;11853;48.080;11.960;2022-08-24T02:26:54;95048.41;;;16.79;98.90
23363;BME280;11853;48.080;11.960;2022-08-24T02:29:20;95054.63;;;16.80;99.15
23363;BME280;11853;48.080;11.960;2022-08-24T02:31:46;95053.28;;;16.76;100.00
23363;BME280;11853;48.080;11.960;2022-08-24T02:34:11;95049.28;;;16.80;99.42
23363;BME280;11853;48.080;11.960;2022-08-24T02:36:38;95063.28;;;16.82;99.00
23363;BME280;11853;48.080;11.960;2022-08-24T02:39:05;95061.63;;;16.81;98.65
23363;BME280;11853;48.080;11.960;2022-08-24T02:41:30;95062.91;;;16.85;98.22
23363;BME280;11853;48.080;11.960;2022-08-24T02:43:56;95064.59;;;16.86;97.59
23363;BME280;11853;48.080;11.960;2022-08-24T02:46:24;95058.41;;;16.85;97.56
23363;BME280;11853;48.080;11.960;2022-08-24T02:48:50;95062.47;;;16.81;97.50
23363;BME280;11853;48.080;11.960;2022-08-24T02:51:27;95056.66;;;16.78;97.46
23363;BME280;11853;48.080;11.960;2022-08-24T02:53:53;95066.53;;;16.77;97.29
23363;BME280;11853;48.080;11.960;2022-08-24T02:56:18;95062.28;;;16.83;96.76
23363;BME280;11853;48.080;11.960;2022-08-24T02:58:46;95064.13;;;16.82;96.33
23363;BME280;11853;48.080;11.960;2022-08-24T03:01:13;95066.53;;;16.77;96.51
23363;BME280;11853;48.080;11.960;2022-08-24T03:03:39;95066.22;;;16.72;97.22
23363;BME280;11853;48.080;11.960;2022-08-24T03:06:06;95061.69;;;16.73;96.71
23363;BME280;11853;48.080;11.960;2022-08-24T03:08:32;95060.66;;;16.74;97.19
23363;BME280;11853;48.080;11.960;2022-08-24T03:10:58;95063.94;;;16.69;97.29
23363;BME280;11853;48.080;11.960;2022-08-24T03:13:26;95066.59;;;16.69;96.88
23363;BME280;11853;48.080;11.960;2022-08-24T03:15:53;95072.50;;;16.64;97.50
23363;BME280;11853;48.080;11.960;2022-08-24T03:18:20;95068.72;;;16.59;97.87
23363;BME280;11853;48.080;11.960;2022-08-24T03:20:47;95066.41;;;16.56;98.50
23363;BME280;11853;48.080;11.960;2022-08-24T03:23:14;95059.41;;;16.55;98.72
23363;BME280;11853;48.080;11.960;2022-08-24T03:25:40;95061.72;;;16.58;98.60
23363;BME280;11853;48.080;11.960;2022-08-24T03:28:06;95052.28;;;16.62;97.92
23363;BME280;11853;48.080;11.960;2022-08-24T03:30:32;95053.84;;;16.56;97.83
23363;BME280;11853;48.080;11.960;2022-08-24T03:32:58;95052.56;;;16.52;98.32
23363;BME280;11853;48.080;11.960;2022-08-24T03:35:24;95052.34;;;16.54;98.21
23363;BME280;11853;48.080;11.960;2022-08-24T03:37:50;95055.41;;;16.51;98.31
23363;BME280;11853;48.080;11.960;2022-08-24T03:40:16;95066.13;;;16.51;97.38
23363;BME280;11853;48.080;11.960;2022-08-24T03:42:42;95056.44;;;16.50;97.30
23363;BME280;11853;48.080;11.960;2022-08-24T03:45:08;95053.75;;;16.50;97.14
23363;BME280;11853;48.080;11.960;2022-08-24T03:47:34;95060.69;;;16.44;97.90
23363;BME280;11853;48.080;11.960;2022-08-24T03:50:00;95056.50;;;16.41;97.42
23363;BME280;11853;48.080;11.960;2022-08-24T03:52:26;95061.41;;;16.38;97.46
23363;BME280;11853;48.080;11.960;2022-08-24T03:54:52;95055.22;;;16.37;97.55
23363;BME280;11853;48.080;11.960;2022-08-24T03:57:17;95057.16;;;16.43;96.28
23363;BME280;11853;48.080;11.960;2022-08-24T03:59:43;95055.84;;;16.39;96.95
23363;BME280;11853;48.080;11.960;2022-08-24T04:02:09;95045.88;;;16.33;97.04
23363;BME280;11853;48.080;11.960;2022-08-24T04:04:34;95049.31;;;16.27;97.74
23363;BME280;11853;48.080;11.960;2022-08-24T04:07:00;95047.44;;;16.28;97.67
23363;BME280;11853;48.080;11.960;2022-08-24T04:09:25;95053.47;;;16.30;97.51
23363;BME280;11853;48.080;11.960;2022-08-24T04:11:51;95043.41;;;16.32;97.86
23363;BME280;11853;48.080;11.960;2022-08-24T04:14:17;95049.97;;;16.29;98.08
23363;BME280;11853;48.080;11.960;2022-08-24T04:16:43;95053.66;;;16.28;98.02
23363;BME280;11853;48.080;11.960;2022-08-24T04:19:10;95060.00;;;16.27;98.06
23363;BME280;11853;48.080;11.960;2022-08-24T04:21:37;95051.59;;;16.30;97.63
23363;BME280;11853;48.080;11.960;2022-08-24T04:24:06;95056.13;;;16.30;97.32
23363;BME280;11853;48.080;11.960;2022-08-24T04:26:34;95061.84;;;16.27;97.32
23363;BME280;11853;48.080;11.960;2022-08-24T04:29:01;95067.03;;;16.28;97.63
23363;BME280;11853;48.080;11.960;2022-08-24T04:31:26;95066.75;;;16.23;97.57
23363;BME280;11853;48.080;11.960;2022-08-24T04:33:55;95068.88;;;16.28;97.48
23363;BME280;11853;48.080;11.960;2022-08-24T04:36:21;95062.88;;;16.26;97.19
23363;BME280;11853;48.080;11.960;2022-08-24T04:38:47;95067.38;;;16.25;96.96
23363;BME280;11853;48.080;11.960;2022-08-24T04:41:14;95065.72;;;16.24;96.98
23363;BME280;11853;48.080;11.960;2022-08-24T04:43:41;95069.16;;;16.33;96.34
23363;BME280;11853;48.080;11.960;2022-08-24T04:46:11;95078.75;;;16.42;96.17
23363;BME280;11853;48.080;11.960;2022-08-24T04:48:40;95084.41;;;16.47;95.49
23363;BME280;11853;48.080;11.960;2022-08-24T04:51:07;95078.81;;;16.57;94.88
23363;BME280;11853;48.080;11.960;2022-08-24T04:53:34;95076.22;;;16.63;94.37
23363;BME280;11853;48.080;11.960;2022-08-24T04:56:00;95081.09;;;16.75;94.02
23363;BME280;11853;48.080;11.960;2022-08-24T04:58:28;95083.81;;;16.89;93.50
23363;BME280;11853;48.080;11.960;2022-08-24T05:00:54;95085.56;;;17.12;92.57
23363;BME280;11853;48.080;11.960;2022-08-24T05:03:20;95089.56;;;17.38;91.08
23363;BME280;11853;48.080;11.960;2022-08-24T05:05:48;95090.69;;;17.65;89.71
23363;BME280;11853;48.080;11.960;2022-08-24T05:08:16;95096.16;;;17.93;87.32
23363;BME280;11853;48.080;11.960;2022-08-24T05:10:44;95092.88;;;18.19;86.86
23363;BME280;11853;48.080;11.960;2022-08-24T05:13:10;95102.56;;;18.41;83.41
23363;BME280;11853;48.080;11.960;2022-08-24T05:15:40;95102.56;;;18.69;81.81
23363;BME280;11853;48.080;11.960;2022-08-24T05:18:07;95104.19;;;18.92;80.80
23363;BME280;11853;48.080;11.960;2022-08-24T05:20:33;95098.53;;;19.15;80.04
23363;BME280;11853;48.080;11.960;2022-08-24T05:23:00;95103.59;;;19.38;79.82
23363;BME280;11853;48.080;11.960;2022-08-24T05:25:26;95103.69;;;19.65;78.71
23363;BME280;11853;48.080;11.960;2022-08-24T05:27:52;95102.53;;;19.87;77.10
23363;BME280;11853;48.080;11.960;2022-08-24T05:30:18;95108.19;;;20.12;74.75
23363;BME280;11853;48.080;11.960;2022-08-24T05:32:44;95106.72;;;20.43;69.06
23363;BME280;11853;48.080;11.960;2022-08-24T05:35:11;95107.56;;;20.43;67.86
23363;BME280;11853;48.080;11.960;2022-08-24T05:37:38;95112.56;;;20.46;67.82
23363;BME280;11853;48.080;11.960;2022-08-24T05:40:07;95110.91;;;20.59;68.16
23363;BME280;11853;48.080;11.960;2022-08-24T05:42:33;95118.56;;;20.68;66.64
23363;BME280;11853;48.080;11.960;2022-08-24T05:44:59;95110.44;;;20.88;64.46
23363;BME280;11853;48.080;11.960;2022-08-24T05:47:25;95123.50;;;21.05;63.08
23363;BME280;11853;48.080;11.960;2022-08-24T05:49:51;95125.34;;;21.24;63.55
23363;BME280;11853;48.080;11.960;2022-08-24T05:52:19;95122.47;;;20.99;62.52
23363;BME280;11853;48.080;11.960;2022-08-24T05:54:45;95117.84;;;21.20;62.33
23363;BME280;11853;48.080;11.960;2022-08-24T05:57:15;95114.78;;;21.09;62.02
23363;BME280;11853;48.080;11.960;2022-08-24T05:59:40;95119.97;;;21.11;61.17
23363;BME280;11853;48.080;11.960;2022-08-24T06:02:06;95123.47;;;21.18;62.32
23363;BME280;11853;48.080;11.960;2022-08-24T06:04:32;95126.97;;;21.25;62.57
23363;BME280;11853;48.080;11.960;2022-08-24T06:06:58;95115.34;;;21.38;60.41
23363;BME280;11853;48.080;11.960;2022-08-24T06:09:24;95118.41;;;21.55;60.31
23363;BME280;11853;48.080;11.960;2022-08-24T06:11:49;95126.16;;;21.38;60.32
23363;BME280;11853;48.080;11.960;2022-08-24T06:14:16;95131.53;;;21.45;61.46
23363;BME280;11853;48.080;11.960;2022-08-24T06:16:44;95125.31;;;21.31;60.77
23363;BME280;11853;48.080;11.960;2022-08-24T06:19:12;95136.16;;;21.04;61.54
23363;BME280;11853;48.080;11.960;2022-08-24T06:21:38;95129.53;;;21.07;62.81
23363;BME280;11853;48.080;11.960;2022-08-24T06:24:05;95141.94;;;21.21;62.52
23363;BME280;11853;48.080;11.960;2022-08-24T06:26:31;95146.94;;;21.38;63.14
23363;BME280;11853;48.080;11.960;2022-08-24T06:29:18;95138.56;;;21.46;62.70
23363;BME280;11853;48.080;11.960;2022-08-24T06:31:46;95136.47;;;21.54;62.77
23363;BME280;11853;48.080;11.960;2022-08-24T06:34:15;95135.81;;;21.59;63.20
23363;BME280;11853;48.080;11.960;2022-08-24T06:36:41;95132.69;;;21.62;64.14
23363;BME280;11853;48.080;11.960;2022-08-24T06:39:07;95139.34;;;21.66;64.38
23363;BME280;11853;48.080;11.960;2022-08-24T06:41:34;95140.00;;;21.55;66.26
23363;BME280;11853;48.080;11.960;2022-08-24T06:44:00;95137.75;;;21.52;66.68
23363;BME280;11853;48.080;11.960;2022-08-24T06:46:25;95137.34;;;21.42;67.66
23363;BME280;11853;48.080;11.960;2022-08-24T06:48:51;95137.78;;;21.39;68.82
23363;BME280;11853;48.080;11.960;2022-08-24T06:51:19;95145.03;;;21.45;67.85
23363;BME280;11853;48.080;11.960;2022-08-24T06:53:47;95148.53;;;21.52;68.11
23363;BME280;11853;48.080;11.960;2022-08-24T06:56:14;95142.53;;;21.50;67.72
23363;BME280;11853;48.080;11.960;2022-08-24T06:58:41;95148.94;;;21.55;68.30
23363;BME280;11853;48.080;11.960;2022-08-24T07:01:16;95147.41;;;21.73;67.90
23363;BME280;11853;48.080;11.960;2022-08-24T07:03:43;95148.78;;;21.89;67.48
23363;BME280;11853;48.080;11.960;2022-08-24T07:06:10;95146.44;;;21.99;65.96
23363;BME280;11853;48.080;11.960;2022-08-24T07:08:37;95152.47;;;22.01;67.21
23363;BME280;11853;48.080;11.960;2022-08-24T07:11:03;95150.28;;;22.16;67.08
23363;BME280;11853;48.080;11.960;2022-08-24T07:13:28;95153.78;;;22.30;65.31
23363;BME280;11853;48.080;11.960;2022-08-24T07:15:55;95151.91;;;22.31;64.01
23363;BME280;11853;48.080;11.960;2022-08-24T07:18:21;95157.22;;;22.44;62.53
23363;BME280;11853;48.080;11.960;2022-08-24T07:20:47;95148.06;;;22.45;63.25
23363;BME280;11853;48.080;11.960;2022-08-24T07:23:13;95151.88;;;22.62;60.95
23363;BME280;11853;48.080;11.960;2022-08-24T07:25:43;95151.88;;;22.62;63.03
23363;BME280;11853;48.080;11.960;2022-08-24T07:28:09;95142.56;;;22.58;62.22
23363;BME280;11853;48.080;11.960;2022-08-24T07:30:36;95150.34;;;22.73;62.38
23363;BME280;11853;48.080;11.960;2022-08-24T07:33:02;95147.13;;;22.83;60.83
23363;BME280;11853;48.080;11.960;2022-08-24T07:35:30;95147.13;;;22.83;61.92
23363;BME280;11853;48.080;11.960;2022-08-24T07:37:57;95151.72;;;22.82;61.11
23363;BME280;11853;48.080;11.960;2022-08-24T07:40:24;95147.94;;;22.83;61.49
23363;BME280;11853;48.080;11.960;2022-08-24T07:42:52;95144.75;;;22.93;62.48
23363;BME280;11853;48.080;11.960;2022-08-24T07:45:19;95148.66;;;23.04;62.74
23363;BME280;11853;48.080;11.960;2022-08-24T07:47:47;95146.16;;;23.21;63.21
23363;BME280;11853;48.080;11.960;2022-08-24T07:50:13;95140.63;;;23.34;62.04
23363;BME280;11853;48.080;11.960;2022-08-24T07:52:39;95146.94;;;23.46;61.23
23363;BME280;11853;48.080;11.960;2022-08-24T07:55:06;95144.53;;;23.56;61.00
23363;BME280;11853;48.080;11.960;2022-08-24T07:57:32;95150.72;;;23.64;60.02
23363;BME280;11853;48.080;11.960;2022-08-24T07:59:59;95151.91;;;23.68;61.26
23363;BME280;11853;48.080;11.960;2022-08-24T08:02:25;95149.38;;;23.36;59.97
23363;BME280;11853;48.080;11.960;2022-08-24T08:04:53;95144.03;;;23.29;61.22
23363;BME280;11853;48.080;11.960;2022-08-24T08:07:19;95149.38;;;23.36;62.66
23363;BME280;11853;48.080;11.960;2022-08-24T08:09:45;95147.56;;;23.48;63.48
23363;BME280;11853;48.080;11.960;2022-08-24T08:12:11;95150.41;;;23.53;63.04
23363;BME280;11853;48.080;11.960;2022-08-24T08:14:37;95150.03;;;23.50;62.89
23363;BME280;11853;48.080;11.960;2022-08-24T08:17:03;95146.47;;;23.49;63.16
23363;BME280;11853;48.080;11.960;2022-08-24T08:19:29;95152.66;;;23.56;63.43
23363;BME280;11853;48.080;11.960;2022-08-24T08:21:55;95152.06;;;23.54;62.77
23363;BME280;11853;48.080;11.960;2022-08-24T08:24:39;95155.00;;;23.53;61.52
23363;BME280;11853;48.080;11.960;2022-08-24T08:27:08;95151.78;;;23.44;62.76
23363;BME280;11853;48.080;11.960;2022-08-24T08:29:35;95154.63;;;23.49;63.91
23363;BME280;11853;48.080;11.960;2022-08-24T08:32:01;95157.19;;;23.63;64.21
23363;BME280;11853;48.080;11.960;2022-08-24T08:34:28;95159.88;;;23.63;62.68
23363;BME280;11853;48.080;11.960;2022-08-24T08:36:55;95151.91;;;23.68;64.06
23363;BME280;11853;48.080;11.960;2022-08-24T08:39:21;95149.41;;;23.66;64.58
23363;BME280;11853;48.080;11.960;2022-08-24T08:44:47;95146.50;;;23.68;64.96
23363;BME280;11853;48.080;11.960;2022-08-24T08:55:33;95148.22;;;23.99;64.57
23363;BME280;11853;48.080;11.960;2022-08-24T09:01:06;95151.91;;;24.04;60.78
23363;BME280;11853;48.080;11.960;2022-08-24T09:04:04;95146.03;;;24.08;62.21
23363;BME280;11853;48.080;11.960;2022-08-24T09:09:53;95149.03;;;23.99;59.42
23363;BME280;11853;48.080;11.960;2022-08-24T09:12:34;95149.88;;;24.00;59.51
23363;BME280;11853;48.080;11.960;2022-08-24T09:15:32;95153.84;;;24.16;58.22
23363;BME280;11853;48.080;11.960;2022-08-24T09:24:09;95152.88;;;24.10;60.53
23363;BME280;11853;48.080;11.960;2022-08-24T09:35:34;95147.00;;;23.95;59.03
23363;BME280;11853;48.080;11.960;2022-08-24T09:38:28;95141.59;;;23.95;58.79
23363;BME280;11853;48.080;11.960;2022-08-24T09:52:43;95137.94;;;24.19;58.85
23363;BME280;11853;48.080;11.960;2022-08-24T09:58:08;95127.28;;;24.18;59.34
23363;BME280;11853;48.080;11.960;2022-08-24T10:00:52;95132.97;;;24.16;59.87
23363;BME280;11853;48.080;11.960;2022-08-24T10:15:06;95130.94;;;24.12;60.20
23363;BME280;11853;48.080;11.960;2022-08-24T10:17:43;95132.00;;;24.11;61.89
23363;BME280;11853;48.080;11.960;2022-08-24T10:20:25;95121.75;;;24.13;60.42
23363;BME280;11853;48.080;11.960;2022-08-24T10:28:57;95118.97;;;24.31;58.76
23363;BME280;11853;48.080;11.960;2022-08-24T10:34:54;95115.41;;;24.19;60.32
23363;BME280;11853;48.080;11.960;2022-08-24T10:54:49;95110.50;;;24.39;62.40
23363;BME280;11853;48.080;11.960;2022-08-24T11:00:15;95105.47;;;24.43;59.04
23363;BME280;11853;48.080;11.960;2022-08-24T11:02:42;95108.19;;;24.43;60.31
23363;BME280;11853;48.080;11.960;2022-08-24T11:07:54;95112.44;;;24.50;58.29
23363;BME280;11853;48.080;11.960;2022-08-24T11:10:28;95104.78;;;24.47;57.71
23363;BME280;11853;48.080;11.960;2022-08-24T11:12:54;95112.91;;;24.47;57.34
23363;BME280;11853;48.080;11.960;2022-08-24T11:15:23;95101.31;;;24.40;57.82
23363;BME280;11853;48.080;11.960;2022-08-24T11:17:54;95106.72;;;24.40;61.27
23363;BME280;11853;48.080;11.960;2022-08-24T11:20:27;95107.97;;;24.44;58.41
23363;BME280;11853;48.080;11.960;2022-08-24T11:23:35;95101.31;;;24.40;56.03
23363;BME280;11853;48.080;11.960;2022-08-24T11:26:05;95106.16;;;24.38;56.38
23363;BME280;11853;48.080;11.960;2022-08-24T11:29:00;95096.94;;;24.39;56.40
23363;BME280;11853;48.080;11.960;2022-08-24T11:31:31;95103.09;;;24.46;57.17
23363;BME280;11853;48.080;11.960;2022-08-24T11:34:12;95089.09;;;24.49;56.40
23363;BME280;11853;48.080;11.960;2022-08-24T11:36:39;95099.25;;;24.66;54.63
23363;BME280;11853;48.080;11.960;2022-08-24T11:39:34;95092.31;;;24.70;52.41
23363;BME280;11853;48.080;11.960;2022-08-24T11:42:19;95099.97;;;24.61;53.45
23363;BME280;11853;48.080;11.960;2022-08-24T11:44:57;95086.16;;;24.63;54.08
23363;BME280;11853;48.080;11.960;2022-08-24T12:02:15;95092.06;;;24.71;61.57
23363;BME280;11853;48.080;11.960;2022-08-24T12:04:48;95100.44;;;24.70;61.35
23363;BME280;11853;48.080;11.960;2022-08-24T12:07:48;95086.41;;;24.73;62.52
23363;BME280;11853;48.080;11.960;2022-08-24T12:19:36;95086.53;;;24.78;61.30
23363;BME280;11853;48.080;11.960;2022-08-24T12:22:03;95088.19;;;24.79;58.23
23363;BME280;11853;48.080;11.960;2022-08-24T12:24:47;95086.97;;;24.75;59.49
23363;BME280;11853;48.080;11.960;2022-08-24T12:27:24;95083.69;;;24.73;60.01
23363;BME280;11853;48.080;11.960;2022-08-24T12:30:12;95077.78;;;24.76;60.91
23363;BME280;11853;48.080;11.960;2022-08-24T12:32:44;95069.19;;;24.79;61.26
23363;BME280;11853;48.080;11.960;2022-08-24T12:35:22;95069.78;;;24.81;62.23
23363;BME280;11853;48.080;11.960;2022-08-24T12:37:56;95072.13;;;24.89;60.78
23363;BME280;11853;48.080;11.960;2022-08-24T12:40:42;95085.47;;;25.03;57.42
23363;BME280;11853;48.080;11.960;2022-08-24T12:43:23;95077.31;;;24.91;58.91
23363;BME280;11853;48.080;11.960;2022-08-24T12:45:55;95075.56;;;24.85;59.13
23363;BME280;11853;48.080;11.960;2022-08-24T12:48:51;95075.31;;;24.86;58.55
23363;BME280;11853;48.080;11.960;2022-08-24T12:51:53;95075.69;;;24.78;58.17
23363;BME280;11853;48.080;11.960;2022-08-24T13:00:27;95067.53;;;24.78;61.23
23363;BME280;11853;48.080;11.960;2022-08-24T13:03:00;95068.94;;;24.81;60.34
23363;BME280;11853;48.080;11.960;2022-08-24T13:05:43;95066.94;;;24.76;59.31
23363;BME280;11853;48.080;11.960;2022-08-24T13:08:22;95068.34;;;24.67;60.27
23363;BME280;11853;48.080;11.960;2022-08-24T13:11:06;95063.84;;;24.61;61.21
23363;BME280;11853;48.080;11.960;2022-08-24T13:21:51;95067.06;;;24.81;61.75
23363;BME280;11853;48.080;11.960;2022-08-24T13:29:46;95058.06;;;24.81;60.85
23363;BME280;11853;48.080;11.960;2022-08-24T13:32:38;95069.31;;;24.84;61.46
23363;BME280;11853;48.080;11.960;2022-08-24T13:35:51;95069.16;;;24.91;60.68
23363;BME280;11853;48.080;11.960;2022-08-24T13:44:07;95063.63;;;24.86;60.19
23363;BME280;11853;48.080;11.960;2022-08-24T13:52:12;95061.03;;;24.79;61.42
23363;BME280;11853;48.080;11.960;2022-08-24T13:55:10;95058.91;;;24.81;61.18
23363;BME280;11853;48.080;11.960;2022-08-24T13:58:36;95059.41;;;24.78;60.70
23363;BME280;11853;48.080;11.960;2022-08-24T14:00:43;95052.91;;;24.79;59.93
23363;BME280;11853;48.080;11.960;2022-08-24T14:03:40;95050.63;;;25.00;58.09
23363;BME280;11853;48.080;11.960;2022-08-24T14:06:36;95049.94;;;25.16;57.55
23363;BME280;11853;48.080;11.960;2022-08-24T14:09:35;95053.13;;;25.01;58.17
23363;BME280;11853;48.080;11.960;2022-08-24T14:12:20;95063.88;;;24.96;57.64
23363;BME280;11853;48.080;11.960;2022-08-24T14:14:56;95061.72;;;24.86;58.90
23363;BME280;11853;48.080;11.960;2022-08-24T14:17:35;95058.78;;;24.76;60.83
23363;BME280;11853;48.080;11.960;2022-08-24T14:25:27;95056.06;;;24.53;63.78
23363;BME280;11853;48.080;11.960;2022-08-24T14:38:20;95048.63;;;24.60;63.36
23363;BME280;11853;48.080;11.960;2022-08-24T14:43:52;95054.19;;;24.65;63.15
23363;BME280;11853;48.080;11.960;2022-08-24T14:49:22;95048.50;;;24.43;63.17
23363;BME280;11853;48.080;11.960;2022-08-24T14:52:19;95048.03;;;24.46;61.18
23363;BME280;11853;48.080;11.960;2022-08-24T15:03:00;95046.81;;;24.30;64.01
23363;BME280;11853;48.080;11.960;2022-08-24T15:08:09;95041.38;;;24.30;64.56
23363;BME280;11853;48.080;11.960;2022-08-24T15:13:30;95033.53;;;24.52;63.79
23363;BME280;11853;48.080;11.960;2022-08-24T15:16:22;95033.41;;;24.47;63.41
23363;BME280;11853;48.080;11.960;2022-08-24T15:19:06;95032.66;;;24.40;63.65
23363;BME280;11853;48.080;11.960;2022-08-24T15:24:14;95039.03;;;24.34;63.69
23363;BME280;11853;48.080;11.960;2022-08-24T15:29:19;95027.72;;;24.37;63.12
23363;BME280;11853;48.080;11.960;2022-08-24T15:32:15;95025.47;;;24.34;63.53
23363;BME280;11853;48.080;11.960;2022-08-24T15:37:26;95028.28;;;24.27;65.35
23363;BME280;11853;48.080;11.960;2022-08-24T15:39:53;95020.16;;;24.27;65.77
23363;BME280;11853;48.080;11.960;2022-08-24T15:42:18;95025.59;;;24.27;65.52
23363;BME280;11853;48.080;11.960;2022-08-24T15:44:46;95026.63;;;24.26;65.80
23363;BME280;11853;48.080;11.960;2022-08-24T15:47:20;95028.75;;;24.24;66.07
23363;BME280;11853;48.080;11.960;2022-08-24T15:49:54;95019.44;;;24.20;66.07
23363;BME280;11853;48.080;11.960;2022-08-24T15:55:30;95031.34;;;24.19;67.63
23363;BME280;11853;48.080;11.960;2022-08-24T15:58:41;95038.56;;;24.37;63.91
23363;BME280;11853;48.080;11.960;2022-08-24T16:00:42;95034.06;;;24.31;63.97
23363;BME280;11853;48.080;11.960;2022-08-24T16:03:43;95039.72;;;24.29;64.10
23363;BME280;11853;48.080;11.960;2022-08-24T16:06:37;95039.47;;;24.19;65.48
23363;BME280;11853;48.080;11.960;2022-08-24T16:11:47;95037.31;;;24.09;65.88
23363;BME280;11853;48.080;11.960;2022-08-24T16:14:25;95038.84;;;24.05;66.82
23363;BME280;11853;48.080;11.960;2022-08-24T16:16:53;95036.25;;;23.98;67.28
23363;BME280;11853;48.080;11.960;2022-08-24T16:19:23;95038.13;;;23.98;67.71
23363;BME280;11853;48.080;11.960;2022-08-24T16:21:54;95037.75;;;23.94;67.29
23363;BME280;11853;48.080;11.960;2022-08-24T16:32:26;95034.59;;;23.97;65.87